Currently N/A°F in Riverside (Orangecrest), California, USA
N/A°F Alert
N/A°F / N/A°F
N/A
N/A
Thursday, February 21, 2019 4:07 AM PST

Riverside (Orangecrest), California Weather Summary
Last 36 Hours

Temperature Winds Hourly Humidity Dewpoint
Time Report Norm Report Norm Max Gusts Precip. Rpt. Norm Rpt. Norm Pressure
1Mon 09:12 PM  46.7°F  61°F  4 mph W  2 mph  6 mph  0.00"  88%  45%  43°F  39°F  29.89"
Mon 09:00 PM  47.3°F  61°F  3 mph W  2 mph  5 mph  0.00"  84%  46%  43°F  39°F  29.88"
Mon 08:00 PM  48.8°F  61°F  1 mph W  3 mph  7 mph  0.00"  80%  46%  43°F  40°F  29.87"
Mon 07:00 PM  49.2°F  63°F  2 mph W  4 mph  10 mph  0.00"  75%  43%  41°F  39°F  29.87"
Mon 06:00 PM  48.8°F  65°F  3 mph W  3 mph  9 mph  0.00"  77%  41%  42°F  40°F  29.86"
Mon 05:00 PM  48.9°F  68°F  calm  4 mph  5 mph  0.01"  93%  36%  47°F  39°F  29.85"
Mon 04:00 PM  47.9°F  70°F  3 mph W  4 mph  11 mph  0.00"  93%  33%  46°F  38°F  29.85"
Mon 03:00 PM  48.5°F  71°F  5 mph W  4 mph  11 mph  0.00"  93%  31%  46°F  38°F  29.85"
Mon 02:00 PM  51.3°F  71°F  6 mph W  4 mph  11 mph  0.00"  84%  30%  46°F  37°F  29.86"
Mon 01:00 PM  51.1°F  70°F  8 mph W  5 mph  18 mph  0.00"  81%  31%  45°F  37°F  29.87"
2Mon 12:43 PM  53.6°F  70°F  4 mph W  4 mph  14 mph  ----  70%  32%  44°F  37°F  29.87"
Mon 12:00 PM  52.8°F  69°F  7 mph W  3 mph  15 mph  0.02"  73%  30%  44°F  36°F  29.90"
Mon 11:00 AM  52.1°F  67°F  4 mph W  3 mph  11 mph  0.00"  87%  35%  48°F  37°F  29.91"
Mon 10:00 AM  49.2°F  63°F  6 mph W  4 mph  12 mph  0.01"  89%  42%  46°F  39°F  29.93"
Mon 09:00 AM  49.6°F  60°F  7 mph W  3 mph  11 mph  0.00"  82%  46%  44°F  38°F  29.91"
Mon 08:00 AM  47.6°F  56°F  calm  3 mph  7 mph  0.00"  92%  48%  45°F  36°F  29.91"
Mon 07:00 AM  47.0°F  54°F  calm  3 mph  8 mph  0.01"  93%  50%  45°F  35°F  29.90"
3Mon 06:32 AM  46.2°F  54°F  5 mph W  3 mph  8 mph  ----  95%  50%  45°F  35°F  29.89"
Mon 06:00 AM  46.7°F  55°F  2 mph W  3 mph  8 mph  0.01"  95%  49%  45°F  35°F  29.88"
Mon 05:00 AM  47.0°F  55°F  calm  2 mph  9 mph  0.00"  94%  48%  45°F  35°F  29.89"
Mon 04:00 AM  46.7°F  56°F  4 mph W  3 mph  6 mph  0.00"  94%  47%  45°F  35°F  29.89"
Mon 03:00 AM  47.3°F  57°F  4 mph W  3 mph  5 mph  0.01"  94%  45%  46°F  35°F  29.91"
Mon 02:00 AM  47.4°F  58°F  calm  3 mph  7 mph  0.00"  94%  45%  46°F  36°F  29.92"
Mon 01:00 AM  47.6°F  58°F  2 mph W  3 mph  5 mph  0.00"  94%  45%  46°F  36°F  29.93"
Mon 12:00 AM  48.3°F  59°F  calm  3 mph  6 mph  0.00"  94%  44%  46°F  36°F  29.94"
Sun 11:00 PM  48.3°F  60°F  3 mph W  3 mph  7 mph  0.00"  93%  43%  46°F  36°F  29.94"
Sun 10:00 PM  48.7°F  61°F  calm  2 mph  none  0.01"  93%  41%  47°F  37°F  29.94"
Sun 09:00 PM  49.1°F  62°F  calm  2 mph  4 mph  0.00"  93%  43%  47°F  38°F  29.93"
Sun 08:00 PM  49.0°F  63°F  2 mph W  3 mph  5 mph  0.00"  93%  42%  47°F  38°F  29.93"
Sun 07:00 PM  49.6°F  64°F  2 mph W  4 mph  5 mph  0.00"  91%  39%  47°F  38°F  29.93"
Sun 06:00 PM  51.0°F  66°F  calm  3 mph  none  0.00"  86%  37%  47°F  38°F  29.93"
Sun 05:00 PM  50.7°F  69°F  calm  4 mph  6 mph  0.00"  89%  32%  47°F  37°F  29.93"
Sun 04:00 PM  50.4°F  71°F  3 mph W  5 mph  9 mph  0.00"  92%  28%  48°F  35°F  29.93"
Sun 03:00 PM  52.3°F  72°F  2 mph W  4 mph  6 mph  0.01"  86%  27%  48°F  35°F  29.93"
Sun 02:00 PM  52.8°F  72°F  2 mph SW  4 mph  7 mph  0.00"  84%  27%  48°F  35°F  29.93"
Sun 01:00 PM  50.3°F  71°F  5 mph W  5 mph  10 mph  0.00"  90%  27%  47°F  34°F  29.94"
Sun 12:00 PM  51.6°F  70°F  5 mph W  4 mph  12 mph  0.00"  81%  28%  46°F  34°F  29.96"
Sun 11:00 AM  51.3°F  68°F  4 mph W  4 mph  13 mph  0.00"  83%  32%  46°F  35°F  29.98"
Sun 10:00 AM  49.4°F  64°F  5 mph W  5 mph  11 mph  0.00"  91%  38%  47°F  37°F  29.99"

  1. Current weather data. No green row appears if the current weather data is also the high or low for the current day.
  2. High temperature for the current day.
  3. Low temperature for the current day.

The Riverside (Orangecrest), California weather pages are a service of WeatherCurrents.
Copyright ©Thu Feb 21 04:07:10 PST 2019  WeatherCurrents. All rights reserved. - Submit questions and comments - Privacy Policy

This page automatically refreshes every 10 minutes.